Time;durP1;ratioP1;P1;durP2;ratioP2;P2;SDS_P1;SDS_P2;PMS_P1;PMS_P2;Temp;Humidity;BMP_temperature;BMP_pressure;BME280_temperature;BME280_humidity;BME280_pressure;Samples;Min_cycle;Max_cycle;Signal;HPM_P1;HPM_P2
2022/08/12 00:45:12;;;;;;;2.53;2.33;;;;;;;19.09;67.96;100328.06;5081500;28;20186;-77
2022/08/12 00:47:39;;;;;;;2.97;2.30;;;;;;;19.14;67.67;100337.44;5080685;28;20181;-78
2022/08/12 00:50:06;;;;;;;3.97;2.40;;;;;;;19.17;68.23;100323.34;5083655;28;20571;-78
2022/08/12 00:52:33;;;;;;;2.60;2.40;;;;;;;19.20;68.44;100333.72;5071649;28;20201;-78
2022/08/12 00:55:00;;;;;;;2.67;2.47;;;;;;;19.18;68.57;100328.50;5082701;28;20671;-78
2022/08/12 00:57:29;;;;;;;2.53;2.33;;;;;;;19.17;68.78;100331.22;5079847;28;20234;-79
2022/08/12 01:00:03;;;;;;;2.57;2.30;;;;;;;19.14;69.91;100336.59;5080406;28;20187;-78
2022/08/12 01:02:34;;;;;;;2.30;2.13;;;;;;;19.11;71.87;100344.59;5077099;28;20216;-78
2022/08/12 01:13:21;;;;;;;2.93;2.57;;;;;;;19.05;69.22;100353.56;5083110;28;20220;-79
2022/08/12 01:15:53;;;;;;;3.67;2.60;;;;;;;19.10;68.30;100343.75;5083026;28;20292;-78
2022/08/12 01:18:23;;;;;;;4.63;2.23;;;;;;;19.13;68.13;100342.75;5080604;28;20199;-78
2022/08/12 01:21:44;;;;;;;2.67;2.47;;;;;;;19.22;67.67;100352.00;5077661;28;20205;-77
2022/08/12 01:24:28;;;;;;;2.70;2.50;;;;;;;19.22;68.35;100336.25;4971619;28;20209;-78
2022/08/12 01:26:55;;;;;;;3.53;2.40;;;;;;;19.29;67.43;100337.66;5082582;28;20255;-78
2022/08/12 01:29:27;;;;;;;3.13;2.83;;;;;;;19.26;67.46;100335.22;5079197;28;20186;-78
2022/08/12 01:31:56;;;;;;;2.40;2.20;;;;;;;19.29;67.49;100338.53;5076163;28;20293;-78
2022/08/12 01:34:31;;;;;;;2.57;2.37;;;;;;;19.32;67.93;100340.16;5082494;28;20185;-78
2022/08/12 01:37:01;;;;;;;2.47;2.27;;;;;;;19.31;68.46;100341.06;5081887;28;20287;-78
2022/08/12 01:39:32;;;;;;;2.60;2.40;;;;;;;19.28;68.77;100334.22;5082019;28;20190;-77
2022/08/12 01:42:02;;;;;;;2.57;2.37;;;;;;;19.22;69.08;100331.84;5074063;28;20263;-77
2022/08/12 01:44:30;;;;;;;2.97;2.77;;;;;;;19.20;68.97;100331.09;5080969;28;20213;-78
2022/08/12 01:47:13;;;;;;;2.97;2.67;;;;;;;19.18;69.09;100331.13;5073418;28;20177;-77
2022/08/12 01:49:52;;;;;;;2.17;2.00;;;;;;;19.20;68.93;100328.47;5077391;28;20186;-78
2022/08/12 01:52:55;;;;;;;2.70;2.43;;;;;;;19.25;67.41;100326.47;5079555;28;20205;-78
2022/08/12 01:55:23;;;;;;;2.60;2.20;;;;;;;19.28;66.55;100323.72;5049322;28;20222;-78
2022/08/12 01:57:58;;;;;;;2.00;1.80;;;;;;;19.32;65.53;100335.78;5083308;28;20381;-77
2022/08/12 02:00:43;;;;;;;2.50;2.00;;;;;;;19.33;65.18;100334.00;5080306;28;20639;-78
2022/08/12 02:13:09;;;;;;;2.30;2.20;;;;;;;19.50;64.33;100318.34;5076230;28;20242;-77
2022/08/12 02:15:51;;;;;;;2.30;2.10;;;;;;;19.55;63.80;100320.75;5079862;28;20205;-78
2022/08/12 02:18:50;;;;;;;2.10;1.90;;;;;;;19.57;64.14;100321.53;5080744;28;20186;-79
2022/08/12 02:21:37;;;;;;;2.03;1.90;;;;;;;19.64;63.74;100324.72;5081794;28;20183;-79
2022/08/12 02:24:05;;;;;;;2.23;2.03;;;;;;;19.67;63.64;100318.47;5079429;28;20192;-78
2022/08/12 02:26:36;;;;;;;2.57;2.10;;;;;;;19.68;63.92;100322.78;5074356;28;20198;-78
2022/08/12 02:29:02;;;;;;;2.23;2.03;;;;;;;19.71;63.59;100314.78;5081528;28;20604;-79
2022/08/12 02:31:28;;;;;;;2.43;1.77;;;;;;;19.73;63.71;100313.81;5081327;28;20203;-79
2022/08/12 02:33:55;;;;;;;3.43;2.10;;;;;;;19.75;63.54;100309.31;5073739;28;20221;-79
2022/08/12 02:36:21;;;;;;;3.97;2.20;;;;;;;19.79;63.83;100308.25;5082113;28;20212;-78
2022/08/12 02:38:48;;;;;;;2.60;2.30;;;;;;;19.82;64.37;100311.66;5077420;28;20200;-79
2022/08/12 02:41:15;;;;;;;2.67;2.00;;;;;;;19.84;65.32;100315.06;5084776;28;20183;-79
2022/08/12 02:43:50;;;;;;;3.93;2.40;;;;;;;19.88;64.51;100309.63;5078700;28;20240;-79
2022/08/12 02:46:22;;;;;;;2.80;2.30;;;;;;;19.93;64.38;100302.38;5079029;28;20192;-78
2022/08/12 02:48:56;;;;;;;2.93;2.00;;;;;;;19.94;64.18;100295.34;5080414;28;20265;-78
2022/08/12 02:51:27;;;;;;;2.47;1.80;;;;;;;19.93;64.21;100296.28;5077181;28;20187;-77
2022/08/12 02:53:57;;;;;;;2.23;2.03;;;;;;;19.97;63.79;100292.59;5084920;28;20261;-78
2022/08/12 02:56:26;;;;;;;2.20;2.00;;;;;;;20.00;63.92;100296.81;5084876;28;20208;-78
2022/08/12 02:58:53;;;;;;;2.90;2.17;;;;;;;20.04;63.78;100295.75;5087433;28;20274;-78
2022/08/12 03:01:23;;;;;;;2.10;2.00;;;;;;;20.04;63.60;100293.13;5083819;28;20203;-79
2022/08/12 03:03:54;;;;;;;2.10;2.00;;;;;;;20.00;63.83;100288.94;5086271;28;20185;-78
2022/08/12 03:06:22;;;;;;;1.90;1.80;;;;;;;19.97;63.74;100289.09;5075416;28;20209;-78
2022/08/12 03:08:51;;;;;;;1.87;1.77;;;;;;;19.93;63.70;100289.25;5088482;28;20192;-78
2022/08/12 03:11:25;;;;;;;2.63;1.83;;;;;;;19.91;63.86;100291.09;5078192;28;20196;-79
2022/08/12 03:13:56;;;;;;;2.40;2.20;;;;;;;19.88;64.62;100295.66;5080435;28;20211;-78
2022/08/12 03:16:24;;;;;;;2.77;2.37;;;;;;;19.77;66.32;100290.88;5086527;28;20632;-77
2022/08/12 03:18:50;;;;;;;2.40;2.20;;;;;;;19.57;67.50;100302.31;5087276;28;20192;-78
2022/08/12 03:21:18;;;;;;;2.70;2.00;;;;;;;19.36;67.55;100312.03;5082034;28;20219;-78
2022/08/12 03:23:45;;;;;;;6.53;3.00;;;;;;;19.09;67.04;100315.81;5077792;28;20706;-79
2022/08/12 03:26:12;;;;;;;8.70;3.17;;;;;;;18.92;67.64;100299.94;5084440;28;20189;-78
2022/08/12 03:28:49;;;;;;;6.30;2.57;;;;;;;18.73;67.80;100309.44;5083202;28;20187;-78
2022/08/12 03:31:20;;;;;;;13.57;3.47;;;;;;;18.62;69.02;100306.41;5081618;28;20277;-78
2022/08/12 03:33:48;;;;;;;3.17;2.70;;;;;;;18.55;69.77;100311.06;5081155;28;20204;-78
2022/08/12 03:36:19;;;;;;;3.60;2.30;;;;;;;18.53;70.44;100310.25;5075461;28;20297;-78
2022/08/12 03:39:17;;;;;;;3.43;2.90;;;;;;;18.56;71.01;100311.94;5080277;28;20187;-78
2022/08/12 03:41:42;;;;;;;2.50;2.30;;;;;;;18.54;71.27;100316.38;5087611;28;20224;-78
2022/08/12 04:00:54;;;;;;;3.00;2.47;;;;;;;18.53;73.38;100325.16;5078298;28;20198;-80
2022/08/12 04:06:07;;;;;;;4.70;2.50;;;;;;;18.43;72.60;100325.53;5083277;28;20238;-79
2022/08/12 04:08:34;;;;;;;3.03;2.80;;;;;;;18.42;72.31;100326.47;5087546;28;20188;-79
2022/08/12 04:13:47;;;;;;;4.83;2.87;;;;;;;18.37;72.09;100322.31;5078471;28;20671;-78
2022/08/12 04:16:13;;;;;;;5.20;2.90;;;;;;;18.37;71.63;100324.94;5087700;28;20272;-79
2022/08/12 04:18:39;;;;;;;3.30;3.00;;;;;;;18.37;71.13;100322.31;5083729;28;20610;-78
2022/08/12 04:21:11;;;;;;;6.33;2.73;;;;;;;18.38;70.87;100324.00;5089083;28;20241;-78
2022/08/12 04:23:39;;;;;;;6.67;3.10;;;;;;;18.38;70.94;100324.88;5076787;28;20182;-78
2022/08/12 04:26:05;;;;;;;3.13;2.83;;;;;;;18.40;70.73;100325.66;5074464;28;20271;-78
2022/08/12 04:28:31;;;;;;;4.00;3.00;;;;;;;18.44;70.66;100321.16;5085375;28;20268;-78
2022/08/12 04:30:56;;;;;;;5.80;3.03;;;;;;;18.49;70.62;100329.69;5087498;28;20769;-77
2022/08/12 04:33:23;;;;;;;2.63;2.37;;;;;;;18.57;70.19;100329.34;5080594;28;20209;-78
2022/08/12 04:35:48;;;;;;;2.93;2.60;;;;;;;18.62;70.67;100330.00;5087883;28;20194;-77
2022/08/12 04:38:16;;;;;;;2.50;2.30;;;;;;;18.65;70.74;100327.25;5082049;28;20855;-78
2022/08/12 04:40:45;;;;;;;2.60;2.40;;;;;;;18.68;70.85;100324.50;5077410;28;20190;-78
2022/08/12 04:43:11;;;;;;;3.30;2.53;;;;;;;18.71;70.95;100332.25;5082500;28;20449;-79
2022/08/12 04:45:37;;;;;;;3.70;3.00;;;;;;;18.74;71.14;100329.50;5079481;28;20174;-77
2022/08/12 04:48:03;;;;;;;3.33;2.80;;;;;;;18.77;70.91;100331.13;5083148;28;20715;-78
2022/08/12 04:50:28;;;;;;;2.70;2.50;;;;;;;18.79;70.98;100334.56;5081988;28;20185;-78
2022/08/12 04:52:55;;;;;;;2.60;2.40;;;;;;;18.84;71.37;100335.19;5080556;28;20213;-78
2022/08/12 04:55:22;;;;;;;3.83;2.47;;;;;;;18.86;71.21;100341.22;5088381;28;20195;-78
2022/08/12 04:57:50;;;;;;;5.87;2.70;;;;;;;18.88;71.10;100343.78;5085497;28;20182;-79
2022/08/12 05:00:16;;;;;;;6.30;2.60;;;;;;;18.90;71.51;100344.59;5078886;28;20181;-79
2022/08/12 05:02:41;;;;;;;3.90;3.37;;;;;;;18.88;71.32;100343.78;5086272;28;20205;-80
2022/08/12 05:05:19;;;;;;;4.57;2.90;;;;;;;18.91;71.28;100346.25;5087356;28;20181;-78
2022/08/12 05:07:47;;;;;;;5.27;2.57;;;;;;;18.91;70.98;100341.00;5093628;28;20657;-79
2022/08/12 05:10:12;;;;;;;4.20;3.10;;;;;;;18.94;71.15;100350.53;5086130;28;20268;-80
2022/08/12 05:12:44;;;;;;;5.03;2.97;;;;;;;18.96;71.00;100352.19;5080088;28;20269;-78
2022/08/12 05:15:12;;;;;;;2.87;2.60;;;;;;;18.96;71.31;100348.75;5086172;28;20262;-79
2022/08/12 05:17:41;;;;;;;4.23;2.70;;;;;;;18.94;71.23;100350.53;5087189;28;20578;-78
2022/08/12 05:20:13;;;;;;;5.33;2.80;;;;;;;18.96;70.60;100361.84;5087927;28;20187;-78
2022/08/12 05:22:38;;;;;;;3.60;3.30;;;;;;;18.94;70.90;100356.66;5086225;28;20699;-78
2022/08/12 05:25:05;;;;;;;5.70;2.70;;;;;;;19.15;70.41;100357.50;5088640;28;20196;-78
2022/08/12 05:27:33;;;;;;;3.53;2.80;;;;;;;19.40;70.07;100358.19;5083316;28;20497;-79
2022/08/12 05:29:59;;;;;;;5.23;2.77;;;;;;;19.65;69.23;100361.44;5086957;28;20189;-78
2022/08/12 05:32:27;;;;;;;6.90;3.23;;;;;;;20.33;67.55;100367.94;5084518;28;20527;-80
2022/08/12 05:34:55;;;;;;;5.60;3.03;;;;;;;20.62;66.87;100357.75;5086825;28;20254;-78
2022/08/12 05:37:21;;;;;;;12.37;3.37;;;;;;;20.54;66.39;100368.66;5083309;28;20190;-80
2022/08/12 05:39:46;;;;;;;4.67;3.10;;;;;;;21.37;65.41;100364.50;5082962;28;20191;-80
2022/08/12 05:42:12;;;;;;;5.00;3.07;;;;;;;22.23;63.31;100365.09;5086884;28;20261;-78
2022/08/12 05:44:37;;;;;;;5.67;3.50;;;;;;;23.32;61.17;100373.81;5090953;28;20282;-78
2022/08/12 05:47:03;;;;;;;4.93;2.83;;;;;;;23.94;59.80;100377.88;5092965;28;20953;-78
2022/08/12 05:49:29;;;;;;;7.57;2.87;;;;;;;24.77;58.69;100369.03;5082678;28;20181;-79
2022/08/12 05:51:54;;;;;;;3.37;3.07;;;;;;;25.22;57.35;100377.41;5088247;28;20189;-79
2022/08/12 05:54:20;;;;;;;3.20;2.90;;;;;;;25.96;56.60;100383.78;5091816;28;20196;-80
2022/08/12 05:56:47;;;;;;;5.13;2.80;;;;;;;26.29;56.11;100384.97;5082789;28;20212;-78
2022/08/12 05:59:12;;;;;;;3.43;2.57;;;;;;;26.33;55.12;100387.25;5088338;28;20231;-77
2022/08/12 06:01:39;;;;;;;2.83;2.43;;;;;;;26.21;55.42;100392.66;5086846;28;20250;-78
2022/08/12 06:04:05;;;;;;;4.63;2.67;;;;;;;26.44;55.62;100383.81;5089527;28;20275;-79
2022/08/12 06:06:40;;;;;;;9.83;3.37;;;;;;;26.89;54.93;100392.91;5081281;28;20247;-78
2022/08/12 06:09:09;;;;;;;4.23;2.90;;;;;;;27.33;54.02;100401.91;5089086;28;20187;-79
2022/08/12 06:11:35;;;;;;;5.90;2.90;;;;;;;26.90;54.20;100399.94;5083698;28;20258;-79
2022/08/12 06:14:01;;;;;;;4.50;2.80;;;;;;;26.98;53.78;100402.84;5086645;28;20204;-79
2022/08/12 06:16:26;;;;;;;6.73;3.07;;;;;;;26.74;54.31;100398.41;5083900;28;20197;-76
2022/08/12 06:18:53;;;;;;;3.43;2.40;;;;;;;26.60;54.60;100401.25;5080973;28;20273;-76
2022/08/12 06:21:23;;;;;;;3.53;2.67;;;;;;;27.03;53.73;100411.28;5099593;28;20181;-75
2022/08/12 06:23:49;;;;;;;3.83;2.70;;;;;;;26.96;53.87;100414.53;5086600;28;20204;-75
2022/08/12 06:26:17;;;;;;;3.40;2.87;;;;;;;26.97;53.66;100406.47;5084032;28;20575;-74
2022/08/12 06:28:47;;;;;;;3.07;2.77;;;;;;;27.40;53.13;100412.91;5091170;28;20216;-76
2022/08/12 06:31:15;;;;;;;3.03;2.50;;;;;;;27.99;52.46;100401.19;5088830;28;20327;-75
2022/08/12 06:33:43;;;;;;;5.13;2.73;;;;;;;28.36;51.83;100408.00;5090422;28;20280;-75
2022/08/12 06:36:10;;;;;;;4.43;2.30;;;;;;;28.64;51.79;100395.06;5087043;28;20213;-74
2022/08/12 06:38:35;;;;;;;3.93;2.40;;;;;;;29.32;51.34;100396.47;5090166;28;20200;-75
2022/08/12 06:43:45;;;;;;;2.47;2.27;;;;;;;29.52;50.67;100389.41;5083588;28;20200;-75
2022/08/12 06:46:12;;;;;;;4.00;2.73;;;;;;;29.58;50.26;100396.03;5092422;28;20196;-77
2022/08/12 06:48:41;;;;;;;4.23;2.47;;;;;;;29.49;50.68;100387.06;5091173;28;20237;-77
2022/08/12 06:51:07;;;;;;;2.40;2.20;;;;;;;29.50;50.94;100392.25;5091687;28;20832;-77
2022/08/12 06:53:33;;;;;;;3.40;2.73;;;;;;;28.94;51.64;100390.81;5091162;28;20216;-78
2022/08/12 06:56:02;;;;;;;6.53;2.80;;;;;;;28.90;51.46;100382.22;5090107;28;20197;-78
2022/08/12 06:58:29;;;;;;;4.23;2.37;;;;;;;28.77;51.88;100378.94;5091198;28;20196;-78
2022/08/12 07:00:56;;;;;;;3.17;2.50;;;;;;;28.93;51.82;100383.78;5092060;28;20193;-76
2022/08/12 07:03:28;;;;;;;12.47;3.70;;;;;;;28.32;52.16;100369.31;5092020;28;20814;-77
2022/08/12 07:05:58;;;;;;;4.07;2.70;;;;;;;28.62;52.57;100372.19;5091176;28;20667;-77
2022/08/12 07:08:28;;;;;;;3.50;2.80;;;;;;;28.52;52.05;100390.75;5089243;28;20197;-77
2022/08/12 07:11:00;;;;;;;4.73;3.10;;;;;;;28.01;52.75;100382.44;5091213;28;20193;-77
2022/08/12 07:13:26;;;;;;;5.27;2.90;;;;;;;28.23;52.79;100375.41;5087861;28;20212;-77
2022/08/12 07:15:54;;;;;;;3.67;2.83;;;;;;;28.36;52.63;100376.06;5089334;28;20220;-76
2022/08/12 07:18:21;;;;;;;5.77;2.83;;;;;;;28.31;53.24;100382.75;5084822;28;20573;-79
2022/08/12 07:20:47;;;;;;;3.30;2.70;;;;;;;28.48;52.76;100384.84;5088252;28;20184;-77
2022/08/12 07:23:14;;;;;;;5.17;2.87;;;;;;;28.18;53.18;100382.91;5089086;28;20201;-77
2022/08/12 07:25:40;;;;;;;4.43;2.57;;;;;;;28.29;53.32;100378.41;5089208;28;20629;-77
2022/08/12 07:28:07;;;;;;;4.87;2.80;;;;;;;28.11;53.22;100386.09;5097507;28;20181;-78
2022/08/12 07:30:36;;;;;;;4.17;2.80;;;;;;;27.83;53.25;100376.81;5090766;28;20185;-78
2022/08/12 07:33:03;;;;;;;5.77;2.70;;;;;;;27.84;53.73;100389.13;5089523;28;20602;-80
2022/08/12 07:35:31;;;;;;;7.00;2.70;;;;;;;27.67;53.92;100377.19;5088311;28;20240;-78
2022/08/12 07:37:58;;;;;;;4.17;2.40;;;;;;;27.48;54.09;100377.78;5090290;28;20645;-77
2022/08/12 07:40:30;;;;;;;6.50;2.87;;;;;;;27.24;54.33;100384.88;5088087;28;21024;-77
2022/08/12 07:42:56;;;;;;;5.03;2.30;;;;;;;27.01;55.30;100378.69;5086901;28;20303;-78
2022/08/12 07:45:23;;;;;;;3.03;2.40;;;;;;;27.12;54.61;100383.19;5090174;28;20592;-78
2022/08/12 07:47:50;;;;;;;3.37;2.47;;;;;;;27.04;54.59;100381.13;5082122;28;20182;-78
2022/08/12 07:50:18;;;;;;;6.17;2.73;;;;;;;27.08;54.74;100385.25;5087302;28;20189;-77
2022/08/12 07:52:46;;;;;;;4.50;3.00;;;;;;;26.87;54.94;100387.75;5084448;28;20203;-77
2022/08/12 07:55:15;;;;;;;5.93;2.70;;;;;;;26.93;54.67;100379.28;5088478;28;20213;-77
2022/08/12 07:57:49;;;;;;;4.80;2.40;;;;;;;26.87;54.96;100386.88;5089523;28;20180;-77
2022/08/12 08:00:15;;;;;;;5.53;2.73;;;;;;;26.89;55.28;100377.00;5087579;28;20686;-79
2022/08/12 08:02:40;;;;;;;7.17;2.97;;;;;;;26.62;55.60;100378.94;5088983;28;20284;-79
2022/08/12 08:05:06;;;;;;;4.50;2.83;;;;;;;26.67;55.52;100377.75;5088341;28;20177;-79
2022/08/12 08:07:32;;;;;;;4.40;2.30;;;;;;;26.62;55.69;100370.13;5090209;28;20200;-79
2022/08/12 08:09:59;;;;;;;3.57;2.43;;;;;;;26.77;55.45;100376.94;5089653;28;20181;-76
2022/08/12 08:15:11;;;;;;;5.43;2.60;;;;;;;26.50;56.17;100377.22;5078245;28;20239;-79
2022/08/12 08:17:37;;;;;;;5.23;2.57;;;;;;;26.54;55.92;100381.34;5089263;28;20196;-78
2022/08/12 08:20:05;;;;;;;3.13;2.70;;;;;;;26.53;55.66;100368.19;5088218;28;20178;-79
2022/08/12 08:22:33;;;;;;;3.43;2.23;;;;;;;26.57;55.57;100375.81;5088455;28;20232;-79
2022/08/12 08:24:59;;;;;;;2.67;2.40;;;;;;;26.38;55.52;100384.28;5087869;28;20185;-77
2022/08/12 08:27:25;;;;;;;4.83;2.57;;;;;;;26.38;55.30;100365.72;5085063;28;20177;-77
2022/08/12 08:29:50;;;;;;;4.60;2.50;;;;;;;26.33;54.89;100366.03;5087559;28;20273;-78
2022/08/12 08:32:16;;;;;;;6.43;2.50;;;;;;;26.09;54.95;100370.47;5087888;28;20279;-77
2022/08/12 08:34:44;;;;;;;4.80;2.53;;;;;;;26.09;55.13;100360.72;5087914;28;20256;-77
2022/08/12 08:37:14;;;;;;;4.00;2.27;;;;;;;25.99;55.57;100372.97;5087450;28;20538;-77
2022/08/12 08:39:40;;;;;;;2.33;2.13;;;;;;;26.01;55.60;100376.34;5089397;28;20185;-77
2022/08/12 08:44:49;;;;;;;2.67;2.47;;;;;;;26.22;55.17;100366.00;5088476;28;20249;-78
2022/08/12 08:47:14;;;;;;;4.33;2.40;;;;;;;26.19;55.52;100358.25;5089000;28;20656;-78
2022/08/12 08:49:40;;;;;;;4.13;2.07;;;;;;;26.24;55.49;100358.78;5087634;28;20177;-78
2022/08/12 08:52:08;;;;;;;5.10;2.73;;;;;;;26.27;55.54;100378.91;5086684;28;20208;-77
2022/08/12 08:54:36;;;;;;;4.10;2.70;;;;;;;26.29;55.53;100361.09;5081726;28;20211;-79
2022/08/12 08:57:03;;;;;;;6.33;2.50;;;;;;;26.27;55.13;100373.59;5081672;28;20559;-78
2022/08/12 08:59:29;;;;;;;3.07;2.50;;;;;;;26.25;55.41;100365.78;5082071;28;20177;-77
2022/08/12 09:01:55;;;;;;;2.43;2.23;;;;;;;26.29;55.52;100366.38;5080597;28;20205;-78
2022/08/12 09:04:22;;;;;;;6.23;2.10;;;;;;;26.40;54.50;100358.47;5084924;28;20192;-77
2022/08/12 09:06:49;;;;;;;13.67;3.73;;;;;;;26.43;54.71;100355.59;5081793;28;20184;-77
2022/08/12 09:09:16;;;;;;;3.97;2.40;;;;;;;26.46;54.90;100354.53;5082191;28;20242;-79
2022/08/12 09:14:27;;;;;;;5.73;2.67;;;;;;;26.61;53.50;100344.56;5084588;28;20557;-78
2022/08/12 09:16:52;;;;;;;2.93;2.20;;;;;;;26.55;52.78;100335.25;5081565;28;20178;-80
2022/08/12 09:19:18;;;;;;;2.07;1.97;;;;;;;26.58;52.70;100339.47;5085269;28;20177;-77
2022/08/12 09:21:47;;;;;;;3.57;2.33;;;;;;;26.70;53.27;100337.72;5085915;28;20208;-77
2022/08/12 09:24:17;;;;;;;3.23;2.20;;;;;;;26.78;52.49;100332.63;5082150;28;20748;-78
2022/08/12 09:26:48;;;;;;;2.63;1.80;;;;;;;26.99;52.23;100327.53;5078885;28;20188;-77
2022/08/12 09:29:15;;;;;;;14.40;3.47;;;;;;;27.04;50.80;100356.38;5083354;28;20185;-78
2022/08/12 09:31:40;;;;;;;2.87;2.23;;;;;;;27.03;50.90;100336.09;5083653;28;20205;-76
2022/08/12 09:34:07;;;;;;;2.07;1.97;;;;;;;27.11;50.50;100338.16;5082971;28;20173;-77
2022/08/12 09:36:37;;;;;;;2.63;2.07;;;;;;;27.22;50.79;100333.72;5084911;28;20295;-77
2022/08/12 09:39:06;;;;;;;3.13;1.90;;;;;;;27.20;50.44;100322.34;5081804;28;20207;-79
2022/08/12 09:41:43;;;;;;;2.63;2.10;;;;;;;27.41;50.61;100318.09;5084308;28;20189;-80
2022/08/12 09:46:54;;;;;;;15.73;3.80;;;;;;;27.45;51.01;100322.22;5086693;28;20187;-77
2022/08/12 09:49:20;;;;;;;15.77;3.33;;;;;;;27.35;51.28;100336.22;5087379;28;20196;-77
2022/08/12 09:51:46;;;;;;;4.23;2.60;;;;;;;27.37;50.70;100318.34;5088733;28;20224;-79
2022/08/12 09:54:12;;;;;;;2.40;2.00;;;;;;;27.43;50.24;100310.88;5083948;28;20246;-77
2022/08/12 09:56:41;;;;;;;2.40;1.70;;;;;;;27.62;50.26;100310.25;5085487;28;20586;-78
2022/08/12 09:59:08;;;;;;;2.07;1.77;;;;;;;27.70;49.47;100313.13;5083174;28;20181;-78
2022/08/12 10:01:38;;;;;;;3.47;1.90;;;;;;;27.66;49.43;100306.38;5094821;28;20237;-76
2022/08/12 10:04:09;;;;;;;2.50;2.00;;;;;;;27.77;50.00;100316.13;5083800;28;20662;-76
2022/08/12 10:06:38;;;;;;;1.60;1.50;;;;;;;27.82;49.52;100295.34;5081723;28;20208;-77
2022/08/12 10:09:08;;;;;;;3.07;2.00;;;;;;;27.79;49.54;100295.56;5085922;28;20238;-77
2022/08/12 10:14:19;;;;;;;2.30;1.90;;;;;;;27.57;49.47;100294.69;5087931;28;20618;-78
2022/08/12 10:16:45;;;;;;;2.37;1.90;;;;;;;27.64;49.67;100301.19;5087868;28;20204;-77
2022/08/12 10:19:15;;;;;;;4.90;2.10;;;;;;;27.69;49.66;100314.94;5085112;28;20617;-75
2022/08/12 10:21:40;;;;;;;2.20;1.67;;;;;;;27.73;49.63;100283.63;5092981;28;20211;-76
2022/08/12 10:24:21;;;;;;;2.70;2.00;;;;;;;27.76;49.40;100288.72;5085417;28;20177;-75
2022/08/12 10:29:37;;;;;;;2.67;2.00;;;;;;;27.92;49.61;100277.63;5081069;28;20196;-76
2022/08/12 10:32:08;;;;;;;4.27;2.20;;;;;;;27.76;49.18;100283.38;5081060;28;20545;-75
2022/08/12 10:34:34;;;;;;;3.20;2.10;;;;;;;27.77;49.34;100270.94;5080172;28;20185;-75
2022/08/12 10:37:01;;;;;;;2.67;2.00;;;;;;;27.72;49.62;100270.47;5083705;28;20209;-75
2022/08/12 10:39:36;;;;;;;5.47;2.37;;;;;;;27.76;49.71;100261.25;5086106;28;20189;-79
2022/08/12 10:45:05;;;;;;;3.67;2.00;;;;;;;27.93;49.80;100265.19;5082096;28;20242;-75
2022/08/12 10:47:34;;;;;;;2.30;2.10;;;;;;;27.93;49.44;100287.31;5091217;28;20169;-79
2022/08/12 10:50:00;;;;;;;3.43;2.00;;;;;;;27.97;49.36;100256.84;5080064;28;20172;-79
2022/08/12 10:52:29;;;;;;;2.60;2.03;;;;;;;28.08;49.57;100260.41;5080894;28;20703;-79
2022/08/12 10:54:55;;;;;;;3.27;2.07;;;;;;;28.23;49.36;100255.66;5082840;28;20223;-77
2022/08/12 10:57:23;;;;;;;5.33;2.13;;;;;;;28.13;48.99;100266.22;5090819;28;20181;-79
2022/08/12 10:59:49;;;;;;;5.90;2.43;;;;;;;28.07;48.64;100258.72;5085927;28;20205;-77
2022/08/12 11:02:15;;;;;;;4.97;2.37;;;;;;;28.07;49.11;100248.06;5085626;28;20236;-77
2022/08/12 11:04:41;;;;;;;5.87;2.00;;;;;;;28.08;48.93;100268.38;5086676;28;20189;-77
2022/08/12 11:07:07;;;;;;;8.17;2.10;;;;;;;28.22;48.80;100246.81;5082413;28;20598;-77
2022/08/12 11:09:34;;;;;;;5.70;2.27;;;;;;;28.26;48.39;100250.91;5079999;28;20236;-78
2022/08/12 11:12:05;;;;;;;3.27;1.60;;;;;;;28.12;48.41;100256.56;5082372;28;20205;-77
2022/08/12 11:14:32;;;;;;;4.67;2.00;;;;;;;28.18;48.64;100242.75;5086122;28;20204;-77
2022/08/12 11:16:58;;;;;;;3.83;2.07;;;;;;;28.25;47.99;100245.75;5087863;28;20204;-78
2022/08/12 11:19:24;;;;;;;3.30;1.83;;;;;;;28.18;47.52;100255.19;5091784;28;20188;-77
2022/08/12 11:21:51;;;;;;;3.27;2.03;;;;;;;28.21;47.10;100244.31;5083659;28;20209;-78
2022/08/12 11:24:17;;;;;;;2.47;1.83;;;;;;;28.34;47.41;100246.78;5089786;28;20189;-77
2022/08/12 11:26:42;;;;;;;2.90;1.80;;;;;;;28.34;46.55;100244.13;5091191;28;20585;-78
2022/08/12 11:29:07;;;;;;;2.00;1.73;;;;;;;28.49;47.23;100239.28;5090686;28;20185;-77
2022/08/12 11:31:33;;;;;;;1.90;1.70;;;;;;;28.53;47.02;100235.41;5087448;28;20940;-78
2022/08/12 11:33:58;;;;;;;3.23;2.00;;;;;;;28.67;46.99;100228.88;5087209;28;20196;-75
2022/08/12 11:36:24;;;;;;;2.00;1.73;;;;;;;28.79;47.61;100230.50;5085316;28;20205;-77
2022/08/12 11:38:49;;;;;;;2.93;1.80;;;;;;;28.88;47.06;100226.22;5087955;28;20632;-77
2022/08/12 11:41:15;;;;;;;4.47;2.30;;;;;;;28.80;46.77;100242.84;5083496;28;20188;-80
2022/08/12 11:43:41;;;;;;;3.93;1.90;;;;;;;28.55;46.97;100236.09;5084969;28;20258;-74
2022/08/12 11:46:06;;;;;;;2.93;1.80;;;;;;;28.80;46.83;100216.22;5076116;28;20173;-75
2022/08/12 11:48:38;;;;;;;1.87;1.60;;;;;;;28.91;45.92;100225.91;5093840;28;20197;-76
2022/08/12 11:51:07;;;;;;;2.20;1.70;;;;;;;28.89;45.69;100220.72;5084892;28;20196;-76
2022/08/12 11:53:33;;;;;;;1.83;1.50;;;;;;;28.99;46.19;100217.25;5084372;28;20212;-76
2022/08/12 11:55:59;;;;;;;2.17;1.60;;;;;;;29.13;46.78;100203.53;5087630;28;20304;-77
2022/08/12 11:58:24;;;;;;;3.23;1.80;;;;;;;29.24;46.75;100207.91;5094532;28;20661;-78
2022/08/12 12:00:50;;;;;;;3.03;1.67;;;;;;;29.22;46.46;100212.53;5087676;28;20265;-78
2022/08/12 12:03:15;;;;;;;2.90;1.57;;;;;;;29.21;45.90;100221.50;5082296;28;20204;-76
2022/08/12 12:05:40;;;;;;;2.00;1.67;;;;;;;29.16;44.85;100208.59;5085692;28;20184;-76
2022/08/12 12:08:06;;;;;;;36.73;4.93;;;;;;;29.02;44.71;100199.19;5087217;28;20663;-78
2022/08/12 12:10:31;;;;;;;1.87;1.50;;;;;;;29.02;44.79;100196.53;5090419;28;20671;-76
2022/08/12 12:12:57;;;;;;;4.97;2.43;;;;;;;28.98;45.56;100207.56;5090607;27;20209;-76
2022/08/12 12:15:22;;;;;;;4.53;1.50;;;;;;;28.86;45.42;100205.00;5087190;28;20197;-77
2022/08/12 12:17:50;;;;;;;3.50;1.70;;;;;;;28.87;45.71;100204.03;5093493;28;20184;-77
2022/08/12 12:20:15;;;;;;;2.20;1.70;;;;;;;28.95;45.81;100186.56;5087658;28;20196;-76
2022/08/12 12:22:41;;;;;;;1.90;1.70;;;;;;;29.14;46.44;100181.25;5088237;28;20205;-77
2022/08/12 12:25:08;;;;;;;1.67;1.57;;;;;;;29.34;46.45;100171.50;5093652;28;20192;-76
2022/08/12 12:27:43;;;;;;;2.17;1.70;;;;;;;29.19;45.26;100186.19;5085864;28;20181;-77
2022/08/12 12:30:09;;;;;;;2.53;1.70;;;;;;;29.09;45.14;100180.84;5087582;28;20189;-78
2022/08/12 12:32:34;;;;;;;3.53;1.53;;;;;;;29.19;45.49;100167.53;5089773;28;20205;-77
2022/08/12 12:34:59;;;;;;;4.10;2.10;;;;;;;29.20;46.31;100170.06;5095605;28;20269;-76
2022/08/12 12:37:25;;;;;;;4.80;1.90;;;;;;;29.30;45.89;100163.88;5079790;28;20185;-75
2022/08/12 12:39:50;;;;;;;8.73;2.40;;;;;;;29.37;45.60;100164.19;5088201;28;20254;-78
2022/08/12 12:42:16;;;;;;;2.20;1.80;;;;;;;29.15;46.28;100174.94;5089318;28;20225;-79
2022/08/12 12:44:41;;;;;;;3.47;1.80;;;;;;;29.04;45.59;100167.06;5092776;28;20418;-79
2022/08/12 12:47:07;;;;;;;3.57;1.70;;;;;;;29.12;45.72;100167.22;5085430;28;20252;-78
2022/08/12 12:49:33;;;;;;;4.00;1.77;;;;;;;29.22;45.08;100169.06;5091892;28;20322;-76
2022/08/12 12:51:58;;;;;;;5.97;2.00;;;;;;;29.21;44.92;100168.22;5085464;28;20220;-76
2022/08/12 12:54:23;;;;;;;3.03;1.83;;;;;;;29.09;45.39;100156.00;5092478;28;20196;-79
2022/08/12 12:56:51;;;;;;;3.70;1.77;;;;;;;29.21;44.80;100152.22;5085587;28;20219;-77
2022/08/12 12:59:17;;;;;;;2.07;1.87;;;;;;;29.15;44.48;100150.97;5082573;28;20185;-74
2022/08/12 13:01:43;;;;;;;4.27;2.00;;;;;;;29.10;44.62;100158.56;5086595;28;20197;-76
2022/08/12 13:04:10;;;;;;;3.40;1.70;;;;;;;29.18;44.96;100149.88;5084604;28;20181;-76
2022/08/12 13:06:37;;;;;;;2.70;1.60;;;;;;;29.24;45.31;100143.97;5087092;28;20173;-78
2022/08/12 13:09:02;;;;;;;2.77;1.60;;;;;;;29.27;45.37;100134.88;5094972;28;20612;-77
2022/08/12 13:11:28;;;;;;;3.77;1.50;;;;;;;29.25;45.06;100147.50;5086036;28;20173;-77
2022/08/12 13:13:55;;;;;;;10.37;2.40;;;;;;;29.25;45.57;100150.97;5084421;28;20672;-77
2022/08/12 13:16:21;;;;;;;2.40;1.50;;;;;;;29.20;45.38;100150.53;5092220;28;20204;-76